ΕΜΥ, Εθνική Μετεωρολογική Υπηρεσία - Δελτία Καιρού, Προγνώσεις

ΑΕΡΟΝΑΥΤΙΛΙΑ

GREEK AIRPORTS CODES

TAF LGSK 300800Z 3009/3018 33014KT 9999 FEW020 TEMPO 3010/3018 33014G24KT=

EUROPEAN AIRPORTS CODES

LCLK 300830Z 13006KT 090V160 CAVOK 28/16 Q1016 NOSIG=